Time;durP1;ratioP1;P1;durP2;ratioP2;P2;SDS_P1;SDS_P2;PMS_P1;PMS_P2;Temp;Humidity;BMP_temperature;BMP_pressure;BME280_temperature;BME280_humidity;BME280_pressure;Samples;Min_cycle;Max_cycle;Signal;HPM_P1;HPM_P2
2023/06/29 00:00:25;;;;;;;5.70;5.20;;;;;;;16.10;100.00;98428.06;5138715;28;20138;-58
2023/06/29 00:02:52;;;;;;;4.47;3.65;;;;;;;15.95;100.00;98424.72;5138953;28;20391;-54
2023/06/29 00:05:21;;;;;;;4.68;4.05;;;;;;;15.91;100.00;98422.03;5138219;27;20047;-58
2023/06/29 00:07:47;;;;;;;6.57;3.78;;;;;;;15.97;100.00;98427.88;5139053;28;20330;-59
2023/06/29 00:10:13;;;;;;;4.50;4.07;;;;;;;16.10;100.00;98422.53;5138583;28;20324;-56
2023/06/29 00:12:40;;;;;;;7.97;4.07;;;;;;;16.13;100.00;98428.00;5138774;28;20054;-55
2023/06/29 00:15:07;;;;;;;5.95;3.92;;;;;;;15.85;100.00;98423.69;5138614;28;20043;-60
2023/06/29 00:17:34;;;;;;;5.85;3.80;;;;;;;16.01;100.00;98425.81;5139000;28;20099;-59
2023/06/29 00:20:00;;;;;;;4.20;3.78;;;;;;;16.13;100.00;98424.47;5138433;28;20101;-60
2023/06/29 00:22:27;;;;;;;4.28;3.85;;;;;;;16.10;100.00;98434.38;5138806;28;20047;-58
2023/06/29 00:24:55;;;;;;;4.63;4.05;;;;;;;16.17;100.00;98427.94;5138580;28;20157;-59
2023/06/29 00:27:21;;;;;;;5.53;5.03;;;;;;;16.05;100.00;98423.78;5138629;27;20097;-55
2023/06/29 00:29:47;;;;;;;6.03;4.75;;;;;;;16.18;100.00;98419.22;5138595;28;20053;-61
2023/06/29 00:32:13;;;;;;;4.30;3.90;;;;;;;16.01;100.00;98423.06;5138468;28;20047;-59
2023/06/29 00:34:39;;;;;;;3.92;3.53;;;;;;;16.12;100.00;98412.59;5138597;28;20297;-60
2023/06/29 00:37:05;;;;;;;3.90;3.47;;;;;;;16.32;100.00;98428.47;5138091;28;20479;-57
2023/06/29 00:39:33;;;;;;;3.70;3.35;;;;;;;16.22;100.00;98421.91;5138618;28;20150;-59
2023/06/29 00:41:59;;;;;;;3.83;3.35;;;;;;;16.10;100.00;98420.53;5138096;28;20142;-58
2023/06/29 00:44:25;;;;;;;7.75;5.20;;;;;;;16.27;100.00;98426.19;5138017;27;20062;-59
2023/06/29 00:46:52;;;;;;;6.75;3.58;;;;;;;16.06;100.00;98421.78;5138053;28;20047;-54
2023/06/29 00:49:19;;;;;;;4.53;3.53;;;;;;;16.18;100.00;98413.69;5138522;28;20107;-55
2023/06/29 00:51:49;;;;;;;5.60;3.80;;;;;;;16.06;100.00;98405.19;5138059;27;20225;-59
2023/06/29 00:54:15;;;;;;;5.95;3.50;;;;;;;15.98;100.00;98393.47;5138165;28;20058;-60
2023/06/29 00:56:43;;;;;;;5.25;3.63;;;;;;;15.99;100.00;98382.03;5138251;28;20055;-61
2023/06/29 00:59:08;;;;;;;5.78;5.28;;;;;;;15.94;100.00;98376.19;5137828;28;20137;-57
2023/06/29 01:01:35;;;;;;;6.38;3.55;;;;;;;15.95;100.00;98378.50;5138153;28;20111;-60
2023/06/29 01:04:01;;;;;;;3.95;3.42;;;;;;;15.74;100.00;98365.06;5137815;28;20142;-54
2023/06/29 01:06:31;;;;;;;4.85;3.67;;;;;;;15.84;100.00;98343.97;5138071;28;20054;-57
2023/06/29 01:09:01;;;;;;;5.47;3.42;;;;;;;16.04;100.00;98355.09;5137808;27;20055;-54
2023/06/29 01:11:27;;;;;;;8.10;4.03;;;;;;;15.74;100.00;98348.47;5138056;27;20138;-56
2023/06/29 01:13:55;;;;;;;3.70;3.15;;;;;;;15.93;100.00;98350.53;5137623;28;20332;-58
2023/06/29 01:16:22;;;;;;;3.88;3.35;;;;;;;16.00;100.00;98353.16;5137395;27;20053;-52
2023/06/29 01:18:51;;;;;;;5.68;3.63;;;;;;;16.06;100.00;98363.72;5137624;28;20058;-52
2023/06/29 01:21:18;;;;;;;14.35;3.70;;;;;;;15.90;100.00;98364.41;5137473;28;20348;-59
2023/06/29 01:23:46;;;;;;;5.80;4.07;;;;;;;15.99;100.00;98364.63;5137742;28;20057;-58
2023/06/29 01:26:13;;;;;;;4.35;3.60;;;;;;;15.65;100.00;98346.19;5137624;28;20061;-60
2023/06/29 01:28:39;;;;;;;11.82;3.85;;;;;;;15.96;100.00;98360.75;5137810;27;20141;-53
2023/06/29 01:31:05;;;;;;;3.63;3.30;;;;;;;15.85;100.00;98359.34;5137498;28;20057;-54
2023/06/29 01:33:32;;;;;;;6.05;3.97;;;;;;;16.00;100.00;98364.22;5137761;28;20417;-60
2023/06/29 01:36:03;;;;;;;4.80;3.90;;;;;;;15.94;100.00;98370.66;5137224;28;20425;-56
2023/06/29 01:38:34;;;;;;;5.32;4.93;;;;;;;15.99;100.00;98378.44;5137755;28;20137;-53
2023/06/29 01:41:01;;;;;;;6.03;4.20;;;;;;;16.02;100.00;98382.38;5137282;28;20055;-60
2023/06/29 01:43:29;;;;;;;3.72;3.28;;;;;;;15.87;100.00;98393.66;5137603;28;20047;-52
2023/06/29 01:45:57;;;;;;;3.95;3.50;;;;;;;15.78;100.00;98379.59;5137156;28;20057;-60
2023/06/29 01:48:23;;;;;;;4.07;3.25;;;;;;;15.88;100.00;98381.41;5137338;28;20055;-59
2023/06/29 01:50:50;;;;;;;6.05;3.70;;;;;;;15.89;100.00;98384.94;5137429;27;20146;-60
2023/06/29 01:53:15;;;;;;;4.50;3.78;;;;;;;15.90;100.00;98383.75;5137264;27;20142;-55
2023/06/29 01:55:41;;;;;;;6.65;3.85;;;;;;;16.07;100.00;98390.19;5137379;28;20047;-52
2023/06/29 01:58:07;;;;;;;5.72;4.05;;;;;;;15.59;100.00;98381.03;5137178;28;20062;-53
2023/06/29 02:00:34;;;;;;;4.78;4.07;;;;;;;15.53;100.00;98363.38;5137340;28;20105;-56
2023/06/29 02:03:00;;;;;;;8.43;4.43;;;;;;;15.45;100.00;98315.72;5137044;28;20051;-53
2023/06/29 02:05:26;;;;;;;4.32;3.53;;;;;;;15.57;100.00;98303.31;5137294;28;20101;-57
2023/06/29 02:07:52;;;;;;;5.85;4.13;;;;;;;15.68;100.00;98281.06;5136828;28;20051;-57
2023/06/29 02:10:18;;;;;;;9.55;4.32;;;;;;;15.61;100.00;98300.50;5137382;27;20135;-54
2023/06/29 02:12:44;;;;;;;5.50;4.15;;;;;;;15.81;100.00;98292.31;5137245;27;20199;-57
2023/06/29 02:15:10;;;;;;;9.90;4.32;;;;;;;15.62;100.00;98313.09;5137038;28;20055;-58
2023/06/29 02:17:37;;;;;;;7.30;3.85;;;;;;;15.81;100.00;98293.06;5137143;28;20373;-55
2023/06/29 02:20:04;;;;;;;8.30;5.18;;;;;;;15.77;100.00;98303.41;5136980;28;20134;-56
2023/06/29 02:22:30;;;;;;;4.13;3.63;;;;;;;15.73;100.00;98300.72;5137013;28;20051;-53
2023/06/29 02:24:55;;;;;;;6.03;4.30;;;;;;;15.66;100.00;98320.19;5136831;28;20047;-56
2023/06/29 02:27:21;;;;;;;4.95;4.28;;;;;;;15.56;100.00;98306.47;5136822;27;20548;-57
2023/06/29 02:29:47;;;;;;;5.53;3.67;;;;;;;15.32;100.00;98291.88;5140113;28;20141;-59
2023/06/29 02:32:13;;;;;;;5.35;4.15;;;;;;;15.29;100.00;98277.72;5140687;28;20051;-60
2023/06/29 02:34:40;;;;;;;10.10;3.75;;;;;;;15.30;100.00;98262.69;5140275;27;20421;-59
2023/06/29 02:37:06;;;;;;;5.68;3.95;;;;;;;15.26;100.00;98231.59;5140472;28;20064;-58
2023/06/29 02:39:31;;;;;;;5.97;3.85;;;;;;;15.53;100.00;98222.50;5140173;28;20047;-59
2023/06/29 02:41:57;;;;;;;6.15;3.50;;;;;;;15.56;100.00;98241.00;5140462;27;20500;-57
2023/06/29 02:44:23;;;;;;;5.88;3.85;;;;;;;15.70;100.00;98256.56;5140238;28;20079;-56
2023/06/29 02:46:49;;;;;;;5.40;4.40;;;;;;;15.78;100.00;98277.34;5140203;28;20079;-54
2023/06/29 02:49:15;;;;;;;4.57;3.88;;;;;;;15.71;100.00;98271.94;5140270;27;20053;-53
2023/06/29 02:51:42;;;;;;;4.43;4.03;;;;;;;15.87;100.00;98274.81;5140120;28;20057;-55
2023/06/29 02:54:08;;;;;;;7.05;4.22;;;;;;;15.62;100.00;98293.75;5140186;28;20129;-53
2023/06/29 02:56:33;;;;;;;7.30;4.38;;;;;;;15.72;100.00;98282.56;5139811;28;20443;-56
2023/06/29 02:59:00;;;;;;;8.93;4.25;;;;;;;15.82;100.00;98291.09;5140180;28;20047;-54
2023/06/29 03:01:26;;;;;;;4.45;3.30;;;;;;;15.63;100.00;98300.88;5139847;28;20047;-54
2023/06/29 03:03:52;;;;;;;12.60;8.35;;;;;;;15.74;100.00;98293.97;5140072;28;20083;-59
2023/06/29 03:06:18;;;;;;;4.68;3.92;;;;;;;15.69;100.00;98318.53;5139637;28;20126;-61
2023/06/29 03:08:44;;;;;;;7.15;4.32;;;;;;;15.61;100.00;98309.56;5140104;28;20078;-59
2023/06/29 03:11:10;;;;;;;4.28;3.28;;;;;;;15.50;100.00;98320.78;5139500;27;20043;-61
2023/06/29 03:13:36;;;;;;;4.20;3.47;;;;;;;15.55;100.00;98311.22;5139766;28;20051;-60
2023/06/29 03:16:02;;;;;;;7.25;4.03;;;;;;;15.72;100.00;98317.69;5139864;27;20086;-59
2023/06/29 03:18:28;;;;;;;7.20;3.85;;;;;;;15.53;100.00;98308.13;5139561;28;20089;-61
2023/06/29 03:20:54;;;;;;;5.68;4.20;;;;;;;15.63;100.00;98298.88;5139721;28;20138;-58
2023/06/29 03:23:20;;;;;;;10.68;3.88;;;;;;;15.86;100.00;98330.50;5139386;28;20051;-56
2023/06/29 03:25:46;;;;;;;9.55;4.20;;;;;;;15.71;100.00;98341.00;5139726;28;20108;-56
2023/06/29 03:28:12;;;;;;;3.92;3.38;;;;;;;15.90;100.00;98348.59;5139486;28;20058;-57
2023/06/29 03:30:38;;;;;;;6.38;3.90;;;;;;;15.89;100.00;98351.78;5139583;28;20302;-55
2023/06/29 03:33:04;;;;;;;8.48;4.05;;;;;;;15.89;100.00;98349.78;5139364;28;20090;-57
2023/06/29 03:35:30;;;;;;;5.28;3.90;;;;;;;15.97;100.00;98365.06;5139505;28;20046;-60
2023/06/29 03:37:56;;;;;;;4.18;3.50;;;;;;;15.87;100.00;98371.56;5139182;27;20054;-59
2023/06/29 03:40:22;;;;;;;7.60;5.78;;;;;;;15.83;100.00;98378.31;5138776;27;20057;-57
2023/06/29 03:42:49;;;;;;;6.63;4.25;;;;;;;15.95;100.00;98367.47;5138979;28;20168;-56
2023/06/29 03:45:15;;;;;;;3.97;3.25;;;;;;;15.86;100.00;98375.53;5139323;28;20055;-59
2023/06/29 03:47:41;;;;;;;6.95;3.78;;;;;;;15.88;100.00;98361.28;5139032;27;20062;-54
2023/06/29 03:50:08;;;;;;;4.75;4.20;;;;;;;15.86;100.00;98366.44;5139218;28;20051;-52
2023/06/29 03:52:34;;;;;;;4.60;3.60;;;;;;;15.91;100.00;98372.25;5139239;28;20050;-58
2023/06/29 03:54:59;;;;;;;4.95;4.03;;;;;;;15.90;100.00;98364.41;5139029;28;20435;-57
2023/06/29 03:57:25;;;;;;;5.85;4.10;;;;;;;15.86;100.00;98375.53;5139225;28;20432;-56
2023/06/29 03:59:52;;;;;;;4.95;3.80;;;;;;;16.07;100.00;98377.16;5138801;28;20429;-54
2023/06/29 04:02:18;;;;;;;7.72;4.30;;;;;;;16.10;100.00;98379.06;5138848;27;20143;-53
2023/06/29 04:04:45;;;;;;;5.25;3.85;;;;;;;16.05;100.00;98370.47;5138747;28;20111;-54
2023/06/29 04:07:11;;;;;;;6.75;5.65;;;;;;;16.30;100.00;98390.19;5139123;28;20047;-54
2023/06/29 04:09:37;;;;;;;3.80;3.50;;;;;;;16.24;100.00;98400.16;5138692;28;20327;-55
2023/06/29 04:12:04;;;;;;;4.65;4.05;;;;;;;16.04;100.00;98388.25;5138962;28;20366;-55
2023/06/29 04:14:30;;;;;;;4.18;3.70;;;;;;;16.18;100.00;98385.25;5138537;28;20163;-55
2023/06/29 04:16:57;;;;;;;7.85;4.65;;;;;;;16.06;100.00;98389.41;5138728;28;20093;-58
2023/06/29 04:19:23;;;;;;;7.05;5.05;;;;;;;16.21;100.00;98395.47;5138776;28;20047;-54
2023/06/29 04:21:49;;;;;;;6.60;4.28;;;;;;;16.05;100.00;98418.25;5138433;28;20043;-59
2023/06/29 04:24:15;;;;;;;4.75;4.25;;;;;;;16.10;100.00;98417.00;5138532;28;20051;-56
2023/06/29 04:26:41;;;;;;;8.20;4.60;;;;;;;16.34;100.00;98420.53;5138380;28;20053;-60
2023/06/29 04:29:07;;;;;;;4.75;4.20;;;;;;;16.35;100.00;98444.22;5138739;28;20058;-55
2023/06/29 04:31:33;;;;;;;9.10;5.18;;;;;;;16.20;100.00;98440.94;5138385;28;20047;-59
2023/06/29 04:34:02;;;;;;;4.57;4.13;;;;;;;16.35;100.00;98450.53;5138569;28;20097;-60
2023/06/29 04:36:28;;;;;;;5.50;4.50;;;;;;;16.30;100.00;98448.28;5138233;28;20328;-59
2023/06/29 04:38:54;;;;;;;8.68;4.45;;;;;;;16.22;100.00;98455.09;5138618;28;20054;-54
2023/06/29 04:41:30;;;;;;;7.28;4.97;;;;;;;16.16;100.00;98456.78;5137959;28;20138;-54
2023/06/29 04:43:57;;;;;;;9.57;5.55;;;;;;;16.03;100.00;98455.81;5138262;28;20134;-54
2023/06/29 04:46:23;;;;;;;5.88;4.97;;;;;;;15.97;100.00;98458.28;5138163;27;20090;-60
2023/06/29 04:48:49;;;;;;;8.35;5.72;;;;;;;15.92;100.00;98437.41;5138146;28;20367;-56
2023/06/29 04:51:18;;;;;;;6.93;5.07;;;;;;;16.15;100.00;98444.94;5138060;27;20312;-54
2023/06/29 04:53:44;;;;;;;9.52;5.53;;;;;;;16.11;100.00;98457.28;5138058;28;20050;-54
2023/06/29 04:56:10;;;;;;;9.30;5.10;;;;;;;16.46;100.00;98464.19;5138351;28;20058;-57
2023/06/29 04:58:37;;;;;;;5.90;4.88;;;;;;;16.08;100.00;98463.63;5137778;28;20407;-60
2023/06/29 05:01:03;;;;;;;5.63;4.90;;;;;;;16.41;100.00;98453.63;5138206;28;20453;-60
2023/06/29 05:03:29;;;;;;;7.55;5.45;;;;;;;16.12;100.00;98440.25;5137545;28;20424;-55
2023/06/29 05:05:55;;;;;;;7.55;4.68;;;;;;;16.37;100.00;98442.63;5138116;28;20080;-52
2023/06/29 05:08:22;;;;;;;4.80;3.88;;;;;;;16.27;100.00;98437.25;5137598;28;20195;-60
2023/06/29 05:10:48;;;;;;;5.78;4.38;;;;;;;16.17;100.00;98414.13;5137708;28;20141;-54
2023/06/29 05:13:14;;;;;;;7.65;4.55;;;;;;;16.41;100.00;98409.34;5137742;28;20051;-60
2023/06/29 05:15:40;;;;;;;10.20;7.10;;;;;;;16.39;100.00;98381.31;5137479;28;20447;-57
2023/06/29 05:18:06;;;;;;;11.40;4.57;;;;;;;16.34;100.00;98385.38;5137614;28;20088;-56
2023/06/29 05:20:32;;;;;;;6.68;4.43;;;;;;;16.18;100.00;98385.25;5137168;28;20467;-59
2023/06/29 05:23:00;;;;;;;7.50;6.40;;;;;;;16.20;100.00;98402.22;5137087;28;20047;-54
2023/06/29 05:25:26;;;;;;;5.28;4.22;;;;;;;16.27;100.00;98390.25;5136994;28;20047;-55
2023/06/29 05:27:52;;;;;;;12.32;4.22;;;;;;;16.26;100.00;98380.38;5137264;28;20178;-63
2023/06/29 05:30:18;;;;;;;6.72;4.03;;;;;;;16.14;100.00;98374.25;5137189;28;20080;-58
2023/06/29 05:32:44;;;;;;;10.88;4.68;;;;;;;16.38;100.00;98380.53;5137198;28;20389;-55
2023/06/29 05:35:10;;;;;;;15.07;4.15;;;;;;;16.61;100.00;98348.50;5137193;28;20134;-54
2023/06/29 05:37:36;;;;;;;9.13;3.90;;;;;;;16.59;100.00;98285.28;5136950;28;20078;-51
2023/06/29 05:40:02;;;;;;;4.70;4.28;;;;;;;16.37;100.00;98273.88;5137304;27;20055;-55
2023/06/29 05:42:29;;;;;;;5.90;3.90;;;;;;;16.59;100.00;98267.91;5136918;27;20388;-64
2023/06/29 05:44:55;;;;;;;5.45;4.03;;;;;;;16.59;100.00;98268.69;5137098;27;20112;-62
2023/06/29 05:47:21;;;;;;;13.90;4.95;;;;;;;16.66;100.00;98206.88;5137180;28;20119;-56
2023/06/29 05:49:47;;;;;;;6.18;4.88;;;;;;;16.98;100.00;98181.25;5136804;28;20107;-60
2023/06/29 05:52:13;;;;;;;9.95;3.83;;;;;;;17.19;100.00;98096.88;5136540;28;20141;-60
2023/06/29 05:54:39;;;;;;;6.13;4.13;;;;;;;17.08;100.00;98047.31;5136500;28;20135;-62
2023/06/29 05:57:05;;;;;;;8.98;3.80;;;;;;;17.13;100.00;97890.97;5136195;28;20161;-59
2023/06/29 05:59:31;;;;;;;8.75;4.15;;;;;;;17.21;100.00;97922.75;5136612;28;20138;-55
2023/06/29 06:01:58;;;;;;;8.77;4.00;;;;;;;17.62;100.00;97824.16;5136333;28;20316;-58
2023/06/29 06:04:24;;;;;;;11.40;3.55;;;;;;;17.83;100.00;97629.47;5139966;27;20051;-61
2023/06/29 06:06:50;;;;;;;5.72;4.15;;;;;;;17.77;100.00;97544.56;5140160;28;20468;-56
2023/06/29 06:09:16;;;;;;;8.95;3.72;;;;;;;18.16;100.00;97470.19;5140183;28;20213;-59
2023/06/29 06:11:42;;;;;;;11.18;3.97;;;;;;;18.04;100.00;97406.06;5140331;28;20059;-58
2023/06/29 06:14:08;;;;;;;14.80;3.83;;;;;;;18.43;100.00;97364.09;5140467;28;20141;-52
2023/06/29 06:16:35;;;;;;;4.78;2.95;;;;;;;18.16;100.00;97384.22;5140505;27;20043;-55
2023/06/29 06:19:01;;;;;;;9.95;3.72;;;;;;;18.11;100.00;97438.28;5140198;28;20340;-55
2023/06/29 06:21:27;;;;;;;5.43;3.58;;;;;;;18.28;100.00;97375.00;5140283;27;20044;-57
2023/06/29 06:23:53;;;;;;;13.27;4.80;;;;;;;18.44;100.00;97266.50;5139904;28;20058;-59
2023/06/29 06:26:19;;;;;;;6.60;3.88;;;;;;;18.32;100.00;97225.81;5140133;28;20126;-60
2023/06/29 06:28:45;;;;;;;7.82;3.20;;;;;;;18.14;100.00;97171.16;5139964;28;20141;-60
2023/06/29 06:31:12;;;;;;;7.32;3.53;;;;;;;18.49;100.00;97204.88;5140150;28;20104;-57
2023/06/29 06:33:39;;;;;;;5.35;3.40;;;;;;;18.71;100.00;97162.25;5139640;28;20566;-57
2023/06/29 06:36:06;;;;;;;9.27;3.40;;;;;;;18.76;100.00;97095.81;5140378;28;20058;-55
2023/06/29 06:38:32;;;;;;;4.22;3.35;;;;;;;18.69;100.00;97104.41;5140205;28;20145;-55
2023/06/29 06:40:58;;;;;;;5.55;3.70;;;;;;;18.55;100.00;97108.63;5140013;28;20074;-56
2023/06/29 06:43:24;;;;;;;9.20;4.70;;;;;;;18.64;100.00;97080.09;5139864;27;20141;-57
2023/06/29 06:45:51;;;;;;;5.78;3.50;;;;;;;18.67;100.00;97095.03;5139814;27;20078;-56
2023/06/29 06:48:18;;;;;;;13.02;2.97;;;;;;;18.55;100.00;97113.41;5139958;28;20415;-62
2023/06/29 06:50:45;;;;;;;7.15;3.75;;;;;;;18.78;100.00;97096.06;5139832;28;20054;-58
2023/06/29 06:53:11;;;;;;;7.75;3.13;;;;;;;19.07;100.00;97072.47;5140139;28;20051;-58
2023/06/29 06:55:37;;;;;;;7.55;3.63;;;;;;;19.09;100.00;97020.00;5139678;27;20146;-57
2023/06/29 06:58:03;;;;;;;8.65;2.80;;;;;;;19.05;100.00;97011.84;5140013;27;20061;-56
2023/06/29 07:00:29;;;;;;;5.75;3.22;;;;;;;18.72;100.00;97011.16;5139546;28;20043;-54
2023/06/29 07:02:55;;;;;;;5.40;3.05;;;;;;;19.22;100.00;97012.19;5139896;28;20111;-57
2023/06/29 07:05:22;;;;;;;8.60;2.90;;;;;;;19.65;100.00;97032.22;5139516;28;20452;-61
2023/06/29 07:07:51;;;;;;;4.47;3.38;;;;;;;19.84;100.00;97057.09;5139414;28;20051;-61
2023/06/29 07:10:17;;;;;;;6.80;3.00;;;;;;;19.83;100.00;97111.16;5139485;28;20059;-57
2023/06/29 07:12:43;;;;;;;10.65;3.15;;;;;;;19.51;100.00;97111.53;5139742;28;20133;-56
2023/06/29 07:15:09;;;;;;;8.55;2.90;;;;;;;19.63;100.00;97112.56;5138367;27;20142;-59
2023/06/29 07:17:35;;;;;;;9.48;2.88;;;;;;;18.99;100.00;97080.41;5139591;28;20047;-60
2023/06/29 07:20:01;;;;;;;5.03;2.40;;;;;;;19.23;100.00;97069.28;5139642;28;20183;-62
2023/06/29 07:22:27;;;;;;;6.93;2.97;;;;;;;19.12;100.00;97099.59;5138948;27;20047;-55
2023/06/29 07:24:55;;;;;;;5.95;3.03;;;;;;;19.61;100.00;97101.09;5139428;28;20397;-57
2023/06/29 07:27:21;;;;;;;10.80;3.28;;;;;;;20.08;100.00;97166.22;5139017;28;20058;-62
2023/06/29 07:29:47;;;;;;;5.95;2.70;;;;;;;20.18;100.00;97236.47;5139436;28;20071;-62
2023/06/29 07:32:13;;;;;;;3.53;3.10;;;;;;;20.89;100.00;97257.78;5138972;28;20050;-58
2023/06/29 07:34:39;;;;;;;7.25;3.35;;;;;;;21.45;100.00;97377.00;5139145;27;20259;-60
2023/06/29 07:37:05;;;;;;;3.85;2.97;;;;;;;22.06;100.00;97425.41;5138890;28;20433;-61
2023/06/29 07:39:33;;;;;;;3.30;2.70;;;;;;;21.69;100.00;97455.75;5139151;28;20163;-57
2023/06/29 07:41:59;;;;;;;4.30;2.92;;;;;;;21.88;100.00;97422.84;5139098;27;20054;-58
2023/06/29 07:44:26;;;;;;;3.95;2.80;;;;;;;21.50;100.00;97435.66;5138788;28;20456;-60
2023/06/29 07:46:51;;;;;;;4.95;2.60;;;;;;;21.23;100.00;97431.09;5139308;28;20059;-57
2023/06/29 07:49:17;;;;;;;3.13;2.83;;;;;;;20.76;100.00;97399.31;5138664;28;20047;-60
2023/06/29 07:51:43;;;;;;;12.23;3.00;;;;;;;20.83;100.00;97359.19;5138979;28;20373;-62
2023/06/29 07:54:09;;;;;;;6.32;3.75;;;;;;;20.59;100.00;97345.31;5138854;28;20047;-60
2023/06/29 07:56:35;;;;;;;7.78;2.60;;;;;;;20.57;100.00;97342.25;5139074;28;20047;-60
2023/06/29 07:59:02;;;;;;;4.07;3.03;;;;;;;20.53;100.00;97311.03;5138720;28;20075;-58
2023/06/29 08:01:28;;;;;;;4.50;2.58;;;;;;;20.44;100.00;97340.44;5138947;28;20138;-56
2023/06/29 08:03:54;;;;;;;6.05;2.60;;;;;;;20.48;100.00;97325.56;5138382;28;20051;-60
2023/06/29 08:06:20;;;;;;;5.63;2.92;;;;;;;20.38;100.00;97330.44;5138469;27;20051;-59
2023/06/29 08:08:46;;;;;;;7.70;2.78;;;;;;;20.28;100.00;97287.25;5138531;28;20057;-56
2023/06/29 08:11:12;;;;;;;3.75;2.60;;;;;;;19.95;100.00;97244.34;5138628;28;20055;-58
2023/06/29 08:13:38;;;;;;;4.60;3.08;;;;;;;20.32;100.00;97276.69;5138655;28;20054;-61
2023/06/29 08:16:05;;;;;;;4.82;3.00;;;;;;;20.31;100.00;97284.28;5138291;27;20047;-54
2023/06/29 08:18:31;;;;;;;10.77;3.05;;;;;;;20.31;100.00;97273.13;5138867;28;20047;-58
2023/06/29 08:20:57;;;;;;;4.25;2.60;;;;;;;20.34;100.00;97290.91;5138399;28;20368;-57
2023/06/29 08:23:23;;;;;;;4.97;2.88;;;;;;;19.97;100.00;97280.06;5138408;28;20062;-59
2023/06/29 08:25:49;;;;;;;5.40;2.95;;;;;;;20.35;100.00;97261.81;5137924;27;20051;-60
2023/06/29 08:28:15;;;;;;;9.60;3.70;;;;;;;20.77;100.00;97299.84;5138898;28;20057;-53
2023/06/29 08:30:41;;;;;;;8.10;3.50;;;;;;;21.43;100.00;97310.59;5138100;28;20050;-53
2023/06/29 08:33:07;;;;;;;4.75;3.10;;;;;;;22.30;100.00;97485.91;5138530;27;20099;-55
2023/06/29 08:35:34;;;;;;;2.70;2.50;;;;;;;22.35;100.00;97541.06;5138350;28;20331;-54
2023/06/29 08:37:59;;;;;;;8.88;3.13;;;;;;;21.48;100.00;97482.75;5138251;27;20069;-58
2023/06/29 08:40:26;;;;;;;4.65;2.65;;;;;;;21.34;100.00;97436.09;5138143;28;20074;-60
2023/06/29 08:42:53;;;;;;;4.40;2.67;;;;;;;20.70;100.00;97386.53;5137893;27;20058;-60
2023/06/29 08:45:18;;;;;;;10.13;3.78;;;;;;;20.95;100.00;97357.38;5138276;28;20047;-56
2023/06/29 08:47:49;;;;;;;6.78;3.10;;;;;;;21.23;100.00;97380.19;5137992;27;20058;-58
2023/06/29 08:50:19;;;;;;;2.92;2.60;;;;;;;21.37;100.00;97396.91;5138308;27;20055;-55
2023/06/29 08:52:46;;;;;;;6.97;3.28;;;;;;;20.90;100.00;97395.78;5137848;28;20145;-55
2023/06/29 08:55:12;;;;;;;6.35;2.95;;;;;;;21.34;100.00;97397.09;5138169;28;20051;-59
2023/06/29 08:57:39;;;;;;;7.00;2.88;;;;;;;21.77;100.00;97405.94;5137737;28;20160;-61
2023/06/29 09:00:06;;;;;;;2.97;2.75;;;;;;;21.72;100.00;97437.28;5138046;27;20400;-57
2023/06/29 09:02:33;;;;;;;8.65;3.45;;;;;;;21.91;100.00;97449.00;5120096;28;20196;-57
2023/06/29 09:04:59;;;;;;;2.75;2.55;;;;;;;22.38;100.00;97500.22;5137727;28;20150;-53
2023/06/29 09:07:26;;;;;;;7.18;3.50;;;;;;;21.94;100.00;97515.00;5137785;28;20078;-60
2023/06/29 09:09:53;;;;;;;5.20;4.53;;;;;;;21.57;100.00;97443.63;5137623;28;20138;-62
2023/06/29 09:12:19;;;;;;;4.32;3.40;;;;;;;21.59;100.00;97440.34;5137856;27;20057;-55
2023/06/29 09:14:47;;;;;;;8.52;3.10;;;;;;;22.03;100.00;97454.28;5137366;27;20328;-59
2023/06/29 09:17:14;;;;;;;3.88;2.53;;;;;;;22.72;100.00;97558.09;5137858;28;20123;-50
2023/06/29 09:19:42;;;;;;;6.07;3.75;;;;;;;22.67;100.00;97578.34;5137483;28;20051;-55
2023/06/29 09:22:08;;;;;;;3.75;2.58;;;;;;;22.97;100.00;97586.69;5137380;27;20363;-59
2023/06/29 09:24:35;;;;;;;2.92;2.60;;;;;;;23.67;100.00;97636.13;5137249;28;20047;-55
2023/06/29 09:27:01;;;;;;;5.32;3.72;;;;;;;23.61;100.00;97652.06;5137730;28;20153;-56
2023/06/29 09:29:27;;;;;;;7.70;4.47;;;;;;;24.30;100.00;97675.53;5137191;27;20058;-59
2023/06/29 09:31:54;;;;;;;4.47;3.08;;;;;;;24.16;100.00;97687.59;5137542;28;20051;-56
2023/06/29 09:34:22;;;;;;;3.33;2.63;;;;;;;23.71;100.00;97717.84;5137456;28;20138;-55
2023/06/29 09:36:48;;;;;;;3.38;2.50;;;;;;;23.73;100.00;97703.38;5137020;28;20416;-57
2023/06/29 09:39:15;;;;;;;5.90;3.53;;;;;;;23.61;100.00;97700.41;5136189;28;20369;-58
2023/06/29 09:41:49;;;;;;;4.53;2.30;;;;;;;23.48;100.00;97689.53;5137227;28;20047;-57
2023/06/29 09:44:16;;;;;;;8.77;3.47;;;;;;;23.30;100.00;97681.44;5137194;27;20137;-56
2023/06/29 09:46:42;;;;;;;5.85;3.13;;;;;;;22.73;100.00;97635.09;5136998;27;20066;-54
2023/06/29 09:49:09;;;;;;;15.65;2.80;;;;;;;23.12;100.00;97645.31;5136925;27;20047;-59
2023/06/29 09:51:34;;;;;;;5.97;3.95;;;;;;;23.04;100.00;97647.75;5136950;28;20420;-56
2023/06/29 09:54:01;;;;;;;3.35;2.70;;;;;;;22.49;100.00;97612.88;5137216;28;20058;-54
2023/06/29 09:56:28;;;;;;;5.45;3.03;;;;;;;22.92;100.00;97632.03;5137129;28;20115;-52
2023/06/29 09:58:56;;;;;;;3.92;3.63;;;;;;;23.05;100.00;97637.34;5137003;28;20047;-52
2023/06/29 10:01:22;;;;;;;6.57;2.90;;;;;;;22.70;100.00;97643.66;5137220;28;20060;-60
2023/06/29 10:03:48;;;;;;;11.18;3.60;;;;;;;22.61;100.00;97632.59;5137011;28;20047;-53
2023/06/29 10:06:19;;;;;;;4.13;3.00;;;;;;;22.67;100.00;97625.84;5136969;28;20139;-56
2023/06/29 10:08:54;;;;;;;3.28;2.92;;;;;;;23.30;100.00;97647.88;5136856;28;20441;-50
2023/06/29 10:11:21;;;;;;;5.53;3.67;;;;;;;24.07;100.00;97690.53;5136969;28;20134;-55
2023/06/29 10:13:49;;;;;;;2.90;2.70;;;;;;;23.75;100.00;97700.84;5136749;27;20149;-57
2023/06/29 10:16:19;;;;;;;10.05;2.58;;;;;;;23.82;100.00;97726.38;5137103;27;20051;-56
2023/06/29 10:18:50;;;;;;;10.32;3.03;;;;;;;23.77;100.00;97707.50;5136598;28;20043;-54
2023/06/29 10:21:16;;;;;;;6.47;2.72;;;;;;;23.98;100.00;97729.88;5136874;28;20138;-54
2023/06/29 10:23:44;;;;;;;2.83;2.63;;;;;;;24.36;100.00;97751.97;5136778;28;20139;-57
2023/06/29 10:26:12;;;;;;;5.00;3.33;;;;;;;24.97;100.00;97770.66;5136447;28;20043;-59
2023/06/29 10:28:38;;;;;;;6.10;3.08;;;;;;;25.03;100.00;97767.91;5136739;28;20328;-58
2023/06/29 10:31:04;;;;;;;12.38;3.65;;;;;;;25.25;100.00;97790.53;5136460;28;20070;-57
2023/06/29 10:33:31;;;;;;;8.25;3.70;;;;;;;25.12;100.00;97790.19;5136692;27;20415;-59
2023/06/29 10:35:58;;;;;;;7.72;3.40;;;;;;;24.93;100.00;97767.31;5136286;28;20047;-57
2023/06/29 10:38:30;;;;;;;4.05;3.13;;;;;;;25.29;100.00;97787.50;5136585;28;20047;-54
2023/06/29 10:40:56;;;;;;;6.53;3.63;;;;;;;24.46;100.00;97744.19;5136066;28;20192;-59
2023/06/29 10:43:25;;;;;;;7.57;3.65;;;;;;;24.08;100.00;97726.44;5136553;28;20051;-56
2023/06/29 10:45:51;;;;;;;5.07;3.40;;;;;;;24.74;100.00;97729.69;5136092;27;20405;-55
2023/06/29 10:48:18;;;;;;;5.57;3.58;;;;;;;24.94;100.00;97726.81;5136149;28;20047;-54
2023/06/29 10:50:46;;;;;;;3.40;3.10;;;;;;;25.18;100.00;97739.75;5139436;27;20134;-54
2023/06/29 10:53:13;;;;;;;4.53;3.20;;;;;;;25.13;100.00;97765.72;5139482;28;20413;-57
2023/06/29 10:55:45;;;;;;;4.07;3.45;;;;;;;24.93;100.00;97769.34;5139929;27;20252;-55
2023/06/29 10:58:18;;;;;;;3.88;2.90;;;;;;;25.28;100.00;97755.13;5139652;28;20055;-60
2023/06/29 11:00:44;;;;;;;5.07;3.20;;;;;;;24.46;100.00;97763.03;5139886;28;20047;-57
2023/06/29 11:03:11;;;;;;;6.30;4.05;;;;;;;24.60;100.00;97753.75;5139483;28;20051;-54
2023/06/29 11:05:37;;;;;;;3.65;3.22;;;;;;;24.87;100.00;97749.69;5139605;28;20134;-60
2023/06/29 11:08:05;;;;;;;6.57;2.65;;;;;;;25.15;100.00;97743.56;5139676;28;20340;-53
2023/06/29 11:10:31;;;;;;;3.95;3.40;;;;;;;25.53;100.00;97747.91;5139880;28;20047;-59
2023/06/29 11:12:58;;;;;;;5.97;3.35;;;;;;;25.64;100.00;97752.81;5139244;27;20051;-55
2023/06/29 11:15:26;;;;;;;2.60;2.40;;;;;;;25.34;100.00;97756.69;5139352;28;20065;-52
2023/06/29 11:17:52;;;;;;;2.35;2.20;;;;;;;25.54;100.00;97755.81;5139618;28;20063;-53
2023/06/29 11:20:20;;;;;;;4.88;2.47;;;;;;;25.48;100.00;97751.44;5139463;27;20142;-60